Whitewater Creek, Colorado (Grand Mesa) Weather observations

Data are for observation ending at time listed.
 Day   Time    Ave.   Ave.  Ave.  Vector   Max.    Total    Solar   Ave.  
  of    of     Air    Rel.  Wind   Wind    Wind   Precip.   Rad.    Soil  
Year   Day     Temp.  Hum.  Speed  Dir.    Gust                     Temp. 
2014   (MST)    F      %     mph   deg.    mph      in.     W/m2     F   
------------------------------------------------------------------------------
 210   12:40   53.1    85    5.5   266      9.9    99999.00   99999    99999.0
 210   12:50   54.1    81    2.2   285      2.2    99999.00   99999    99999.0
 210   13:00   53.8    82    2.2   283      2.2    99999.00   99999    99999.0
 210   13:10   53.8    78    2.2   279      2.2    99999.00   99999    99999.0
 210   13:20   53.7    78    2.2   282      2.2    99999.00   99999    99999.0
 210   13:30   53.5    80    2.2   280      2.2    99999.00   99999    99999.0
 210   13:40   53.3    79    2.2   285      2.2    99999.00   99999    99999.0
 210   13:50   53.5    80    2.2   282      2.2    99999.00   99999    99999.0
 210   14:00   53.0    82    5.4   234      9.9    99999.00   99999    99999.0
 210   14:10   53.2    78    4.2   247      8.6    99999.00   99999    99999.0
 210   14:20   54.1    75    2.2   246      2.2    99999.00   99999    99999.0
 210   14:30   56.2    69    2.8   240      7.4    99999.00   99999    99999.0
 210   14:40   57.4    67    3.3   300      7.4    99999.00   99999    99999.0
 210   14:50   57.7    65    4.5   291     11.2    99999.00   99999    99999.0
 210   15:00   57.2    66    6.2   253     12.5    99999.00   99999    99999.0
 210   15:10   56.5    71    8.5   250     12.5    99999.00   99999    99999.0
 210   15:20   57.3    71    8.6   247     13.8    99999.00   99999    99999.0
 210   15:30   57.7    64   10.3   271     16.3    99999.00   99999    99999.0
 210   15:40   57.2    67    9.6   277     15.0    99999.00   99999    99999.0
 210   15:50   57.4    66    7.0   264     12.5    99999.00   99999    99999.0
 210   16:00   57.9    63    6.8   261     11.2    99999.00   99999    99999.0
 210   16:10   58.7    60    7.3   263     12.5    99999.00   99999    99999.0
 210   16:20   58.6    59    7.0   268     13.8    99999.00   99999    99999.0
 210   16:30   57.8    61    2.7   292      6.1    99999.00   99999    99999.0
 210   16:40   58.9    58    2.2   286      2.2    99999.00   99999    99999.0
 210   16:50   59.1    59    2.7   278      7.4    99999.00   99999    99999.0
 210   17:00   57.4    62    6.8   255     12.5    99999.00   99999    99999.0
 210   17:10   57.2    66    7.3   254     11.2    99999.00   99999    99999.0
 210   17:20   56.9    71   10.0   252     18.9    99999.00   99999    99999.0
 210   17:30   56.8    67    8.4   270     12.5    99999.00   99999    99999.0
 210   17:40   55.4    77    7.0   247      9.9    99999.00   99999    99999.0
 210   17:50   53.8    88    7.3   226      9.9    99999.00   99999    99999.0
 210   18:00   51.8    92   11.9   242     21.4    99999.00   99999    99999.0
 210   18:10   49.4    90   17.0   212     24.0    99999.00   99999    99999.0
 210   18:20   49.5    90   15.7   203     21.4    99999.00   99999    99999.0
 210   18:30   49.2    90   10.5   223     15.0    99999.00   99999    99999.0
 210   18:40   49.1    91   10.4   202     15.0    99999.00   99999    99999.0
 210   18:50   49.5    92   12.3   196     17.6    99999.00   99999    99999.0
 210   19:00   49.3    94   12.1   234     20.2    99999.00   99999    99999.0
 210   19:10   47.2    96    9.3   282     18.9    99999.00   99999    99999.0
 210   19:20   47.2    96    9.2   270     15.0    99999.00   99999    99999.0
 210   19:30   46.5    97    8.0   286     13.8    99999.00   99999    99999.0
 210   19:40   46.0    97    7.2   308     13.8    99999.00   99999    99999.0
 210   19:50   45.5    97    6.6   348      9.9    99999.00   99999    99999.0
 210   20:00   45.8    97    7.0    24     11.2    99999.00   99999    99999.0
 210   20:10   45.6    97    9.2    29     17.6    99999.00   99999    99999.0
 210   20:20   45.4    97    9.5    35     15.0    99999.00   99999    99999.0
 210   20:30   45.3    97    7.8    47     12.5    99999.00   99999    99999.0
 210   20:40   45.2    97    7.8    44     11.2    99999.00   99999    99999.0
 210   20:50   45.1    97    7.6    38      9.9    99999.00   99999    99999.0
 210   21:00   45.3    96    6.9    50      9.9    99999.00   99999    99999.0
 210   21:10   45.2    96    3.9    66      8.6    99999.00   99999    99999.0
 210   21:20   45.4    94    2.2    66      2.2    99999.00   99999    99999.0
 210   21:30   45.5    93    2.2    66      2.2    99999.00   99999    99999.0
 210   21:40   45.9    91    2.2    66      2.2    99999.00   99999    99999.0
 210   21:50   46.1    91    2.2    66      2.2    99999.00   99999    99999.0
 210   22:00   46.1    91    2.2    66      2.2    99999.00   99999    99999.0
 210   22:10   46.0    93    2.2    66      2.2    99999.00   99999    99999.0
 210   22:20   45.8    94    2.2    66      2.2    99999.00   99999    99999.0
 210   22:30   45.8    94    2.2    66      2.2    99999.00   99999    99999.0
 210   22:40   45.9    95    2.2    66      2.2    99999.00   99999    99999.0
 210   22:50   45.9    95    2.2    66      2.2    99999.00   99999    99999.0
 210   23:00   45.9    95    2.2    66      2.2    99999.00   99999    99999.0
 210   23:10   46.0    95    2.2    66      2.2    99999.00   99999    99999.0
 210   23:20   46.0    95    2.2    66      2.2    99999.00   99999    99999.0
 210   23:30   45.8    95    2.2    66      2.2    99999.00   99999    99999.0
 210   23:40   45.8    95    2.2    66      2.2    99999.00   99999    99999.0
 210   23:50   45.8    95    2.2    66      2.2    99999.00   99999    99999.0
 211    0:00   45.8    95    2.2    66      2.2    99999.00   99999    99999.0
 211    0:10   46.0    95    2.2    66      2.2    99999.00   99999    99999.0
 211    0:20   46.1    95    2.2    66      2.2    99999.00   99999    99999.0
 211    0:30   46.0    95    2.2    66      2.2    99999.00   99999    99999.0
 211    0:40   46.0    95    2.2    66      2.2    99999.00   99999    99999.0
 211    0:50   46.1    95    2.2    66      2.2    99999.00   99999    99999.0
 211    1:00   46.2    95    2.2    66      2.2    99999.00   99999    99999.0
 211    1:10   46.0    95    2.2    66      2.2    99999.00   99999    99999.0
 211    1:20   46.2    95    2.2    66      2.2    99999.00   99999    99999.0
 211    1:30   46.2    95    2.2    66      2.2    99999.00   99999    99999.0
 211    1:40   45.9    94    2.2    66      2.2    99999.00   99999    99999.0
 211    1:50   45.4    95    2.2    66      2.2    99999.00   99999    99999.0
 211    2:00   45.1    94    2.2    66      2.2    99999.00   99999    99999.0
 211    2:10   44.8    94    2.2    66      2.2    99999.00   99999    99999.0
 211    2:20   44.5    94    2.2    66      2.2    99999.00   99999    99999.0
 211    2:30   44.2    95    2.2    66      2.2    99999.00   99999    99999.0
 211    2:40   43.7    94    2.2    66      2.2    99999.00   99999    99999.0
 211    2:50   43.2    94    2.2    66      2.2    99999.00   99999    99999.0
 211    3:00   43.0    94    2.2    66      2.2    99999.00   99999    99999.0
 211    3:10   42.9    94    2.2    66      2.2    99999.00   99999    99999.0
 211    3:20   43.0    94    2.2    66      2.2    99999.00   99999    99999.0
 211    3:30   42.7    94    2.2    66      2.2    99999.00   99999    99999.0
 211    3:40   42.7    94    2.2    66      2.2    99999.00   99999    99999.0
 211    3:50   42.3    94    2.2    66      2.2    99999.00   99999    99999.0
 211    4:00   42.6    94    2.2    66      2.2    99999.00   99999    99999.0
 211    4:10   42.2    94    2.2    66      2.2    99999.00   99999    99999.0
 211    4:20   41.9    94    2.2    66      2.2    99999.00   99999    99999.0
 211    4:30   41.9    94    2.2    67      2.2    99999.00   99999    99999.0
 211    4:40   41.4    95    2.2   107      2.2    99999.00   99999    99999.0
 211    4:50   42.1    96    2.2   107      2.2    99999.00   99999    99999.0
 211    5:00   42.2    94    2.2   107      2.2    99999.00   99999    99999.0
 211    5:10   42.0    95    2.2   107      2.2    99999.00   99999    99999.0
 211    5:20   41.9    95    2.2   107      2.2    99999.00   99999    99999.0
 211    5:30   42.0    95    2.2   107      2.2    99999.00   99999    99999.0
 211    5:40   43.3    94    2.2   121      2.2    99999.00   99999    99999.0
 211    5:50   43.4    92    2.2   268      2.2    99999.00   99999    99999.0
 211    6:00   44.1    90    2.2   268      2.2    99999.00   99999    99999.0
 211    6:10   45.5    89    2.3   268      4.8    99999.00   99999    99999.0
 211    6:20   47.3    90    2.2   268      2.2    99999.00   99999    99999.0
 211    6:30   49.9    85    2.2   268      2.2    99999.00   99999    99999.0
 211    6:40   51.6    80    2.2   268      2.2    99999.00   99999    99999.0
 211    6:50   51.0    82    2.2   268      2.2    99999.00   99999    99999.0
 211    7:00   52.5    76    2.2   268      2.2    99999.00   99999    99999.0
 211    7:10   53.2    71    2.2   268      2.2    99999.00   99999    99999.0
 211    7:20   53.6    71    2.2   268      2.2    99999.00   99999    99999.0
 211    7:30   54.2    70    2.8   267      4.8    99999.00   99999    99999.0
 211    7:40   54.4    69    2.4   267      4.8    99999.00   99999    99999.0
 211    7:50   56.2    64    2.2   267      2.2    99999.00   99999    99999.0
 211    8:00   56.8    65    2.2   267      2.2    99999.00   99999    99999.0
 211    8:10   56.6    64    2.2   267      2.2    99999.00   99999    99999.0
 211    8:20   56.7    62    2.2   267      2.2    99999.00   99999    99999.0
 211    8:30   55.8    66    2.2   280      2.2    99999.00   99999    99999.0
 211    8:40   53.5    78    2.2   113      2.2    99999.00   99999    99999.0
 211    8:50   53.3    80    2.2   100      2.2    99999.00   99999    99999.0
 211    9:00   52.7    83    2.2    72      2.2    99999.00   99999    99999.0
 211    9:10   54.3    80    7.1    39     11.2    99999.00   99999    99999.0
 211    9:20   53.1    82    9.8    28     12.5    99999.00   99999    99999.0
 211    9:30   51.5    86    8.6    30     11.2    99999.00   99999    99999.0
 211    9:40   50.2    90    6.0    17      9.9    99999.00   99999    99999.0
 211    9:50   50.3    89    3.1    13      6.1    99999.00   99999    99999.0
 211   10:00   52.0    84    2.2    15      2.2    99999.00   99999    99999.0
 211   10:10   53.9    80    2.3    42      6.1    99999.00   99999    99999.0
 211   10:20   53.7    78    3.5    26      7.4    99999.00   99999    99999.0
 211   10:30   53.4    79    4.7   357      8.6    99999.00   99999    99999.0
 211   10:40   53.8    78    2.8     6      7.4    99999.00   99999    99999.0
 211   10:50   55.7    75    2.2     6      2.2    99999.00   99999    99999.0
 211   11:00   54.1    80    2.7    14      6.1    99999.00   99999    99999.0
 211   11:10   53.7    81    3.7   305      6.1    99999.00   99999    99999.0
 211   11:20   54.4    79    2.8   309      6.1    99999.00   99999    99999.0
 211   11:30   56.0    74    3.3   319      7.4    99999.00   99999    99999.0
 211   11:40   57.1    65    8.1   235     11.2    99999.00   99999    99999.0
 211   11:50   56.9    68    8.0   234     12.5    99999.00   99999    99999.0
 211   12:00   57.4    64    7.9   228     12.5    99999.00   99999    99999.0
 211   12:10   57.1    66    7.7   223     12.5    99999.00   99999    99999.0
 211   12:20   56.4    67    6.5   243      9.9    99999.00   99999    99999.0
 211   12:30   56.4    72    4.6   258      8.6    99999.00   99999    99999.0

Return to Whitewater Creek, Colorado graphs page.


Western Regional Climate Center,wrcc@dri.edu